sensor_id;sensor_type;location;lat;lon;timestamp;temperature;humidity
23114;DHT22;11726;50.122;8.832;2023-03-14T00:01:25;11.00;99.90
23114;DHT22;11726;50.122;8.832;2023-03-14T00:03:52;11.00;99.90
23114;DHT22;11726;50.122;8.832;2023-03-14T00:06:19;11.00;99.90
23114;DHT22;11726;50.122;8.832;2023-03-14T00:08:46;11.10;99.90
23114;DHT22;11726;50.122;8.832;2023-03-14T00:11:16;11.00;99.90
23114;DHT22;11726;50.122;8.832;2023-03-14T00:13:43;11.00;99.90
23114;DHT22;11726;50.122;8.832;2023-03-14T00:16:11;10.90;99.90
23114;DHT22;11726;50.122;8.832;2023-03-14T00:18:39;11.10;99.90
23114;DHT22;11726;50.122;8.832;2023-03-14T00:21:07;11.10;99.90
23114;DHT22;11726;50.122;8.832;2023-03-14T00:23:35;11.10;99.90
23114;DHT22;11726;50.122;8.832;2023-03-14T00:26:05;11.10;99.90
23114;DHT22;11726;50.122;8.832;2023-03-14T00:28:32;11.00;99.90
23114;DHT22;11726;50.122;8.832;2023-03-14T00:30:58;11.10;99.90
23114;DHT22;11726;50.122;8.832;2023-03-14T00:33:25;11.20;99.90
23114;DHT22;11726;50.122;8.832;2023-03-14T00:35:56;11.10;99.90
23114;DHT22;11726;50.122;8.832;2023-03-14T00:38:23;11.10;99.90
23114;DHT22;11726;50.122;8.832;2023-03-14T00:40:51;11.10;99.90
23114;DHT22;11726;50.122;8.832;2023-03-14T00:43:19;11.10;99.90
23114;DHT22;11726;50.122;8.832;2023-03-14T00:45:49;11.10;99.90
23114;DHT22;11726;50.122;8.832;2023-03-14T00:48:16;11.00;99.90
23114;DHT22;11726;50.122;8.832;2023-03-14T00:50:42;11.10;99.90
23114;DHT22;11726;50.122;8.832;2023-03-14T00:53:09;11.00;99.90
23114;DHT22;11726;50.122;8.832;2023-03-14T00:55:37;11.10;99.90
23114;DHT22;11726;50.122;8.832;2023-03-14T00:58:05;11.10;99.90
23114;DHT22;11726;50.122;8.832;2023-03-14T01:00:32;11.00;99.90
23114;DHT22;11726;50.122;8.832;2023-03-14T01:02:59;10.90;99.90
23114;DHT22;11726;50.122;8.832;2023-03-14T01:05:26;11.00;99.90
23114;DHT22;11726;50.122;8.832;2023-03-14T01:07:53;11.00;99.90
23114;DHT22;11726;50.122;8.832;2023-03-14T01:10:20;11.00;99.90
23114;DHT22;11726;50.122;8.832;2023-03-14T01:12:47;11.00;99.90
23114;DHT22;11726;50.122;8.832;2023-03-14T01:15:14;11.00;99.90
23114;DHT22;11726;50.122;8.832;2023-03-14T01:17:41;11.00;99.90
23114;DHT22;11726;50.122;8.832;2023-03-14T01:20:10;11.00;99.90
23114;DHT22;11726;50.122;8.832;2023-03-14T01:22:38;11.00;99.90
23114;DHT22;11726;50.122;8.832;2023-03-14T01:25:08;10.90;99.90
23114;DHT22;11726;50.122;8.832;2023-03-14T01:27:35;10.90;99.90
23114;DHT22;11726;50.122;8.832;2023-03-14T01:30:02;10.90;99.90
23114;DHT22;11726;50.122;8.832;2023-03-14T01:32:30;10.90;99.90
23114;DHT22;11726;50.122;8.832;2023-03-14T01:34:56;10.90;99.90
23114;DHT22;11726;50.122;8.832;2023-03-14T01:37:23;10.90;99.90
23114;DHT22;11726;50.122;8.832;2023-03-14T01:39:50;11.10;99.90
23114;DHT22;11726;50.122;8.832;2023-03-14T01:42:17;11.10;99.90
23114;DHT22;11726;50.122;8.832;2023-03-14T01:44:59;11.20;99.90
23114;DHT22;11726;50.122;8.832;2023-03-14T01:47:26;11.10;99.90
23114;DHT22;11726;50.122;8.832;2023-03-14T01:49:59;11.10;99.90
23114;DHT22;11726;50.122;8.832;2023-03-14T01:52:41;11.20;99.90
23114;DHT22;11726;50.122;8.832;2023-03-14T01:55:13;11.10;99.90
23114;DHT22;11726;50.122;8.832;2023-03-14T01:57:44;11.10;99.90
23114;DHT22;11726;50.122;8.832;2023-03-14T02:00:15;11.10;99.90
23114;DHT22;11726;50.122;8.832;2023-03-14T02:02:46;11.20;99.90
23114;DHT22;11726;50.122;8.832;2023-03-14T02:05:17;11.10;99.90
23114;DHT22;11726;50.122;8.832;2023-03-14T02:07:54;11.20;99.90
23114;DHT22;11726;50.122;8.832;2023-03-14T02:10:24;11.20;99.90
23114;DHT22;11726;50.122;8.832;2023-03-14T02:12:53;11.20;99.90
23114;DHT22;11726;50.122;8.832;2023-03-14T02:15:22;11.10;99.90
23114;DHT22;11726;50.122;8.832;2023-03-14T02:17:49;11.00;99.90
23114;DHT22;11726;50.122;8.832;2023-03-14T02:22:51;11.00;99.90
23114;DHT22;11726;50.122;8.832;2023-03-14T02:25:48;11.10;99.90
23114;DHT22;11726;50.122;8.832;2023-03-14T02:28:17;11.20;99.90
23114;DHT22;11726;50.122;8.832;2023-03-14T02:30:44;11.20;99.90
23114;DHT22;11726;50.122;8.832;2023-03-14T02:33:14;11.20;99.90
23114;DHT22;11726;50.122;8.832;2023-03-14T02:35:50;11.20;99.90
23114;DHT22;11726;50.122;8.832;2023-03-14T02:38:31;11.20;99.90
23114;DHT22;11726;50.122;8.832;2023-03-14T02:40:59;11.20;99.90
23114;DHT22;11726;50.122;8.832;2023-03-14T02:43:26;11.10;99.90
23114;DHT22;11726;50.122;8.832;2023-03-14T02:45:53;11.20;99.90
23114;DHT22;11726;50.122;8.832;2023-03-14T02:48:26;11.20;99.90
23114;DHT22;11726;50.122;8.832;2023-03-14T02:50:59;11.10;99.90
23114;DHT22;11726;50.122;8.832;2023-03-14T02:53:31;11.10;99.90
23114;DHT22;11726;50.122;8.832;2023-03-14T02:55:59;11.20;99.90
23114;DHT22;11726;50.122;8.832;2023-03-14T02:58:26;11.20;99.90
23114;DHT22;11726;50.122;8.832;2023-03-14T03:00:53;11.20;99.90
23114;DHT22;11726;50.122;8.832;2023-03-14T03:03:20;11.10;99.90
23114;DHT22;11726;50.122;8.832;2023-03-14T03:05:51;11.10;99.90
23114;DHT22;11726;50.122;8.832;2023-03-14T03:08:19;11.20;99.90
23114;DHT22;11726;50.122;8.832;2023-03-14T03:10:46;11.20;99.90
23114;DHT22;11726;50.122;8.832;2023-03-14T03:13:12;11.20;99.90
23114;DHT22;11726;50.122;8.832;2023-03-14T03:15:39;11.20;99.90
23114;DHT22;11726;50.122;8.832;2023-03-14T03:18:07;11.10;99.90
23114;DHT22;11726;50.122;8.832;2023-03-14T03:20:34;11.10;99.90
23114;DHT22;11726;50.122;8.832;2023-03-14T03:23:00;11.10;99.90
23114;DHT22;11726;50.122;8.832;2023-03-14T03:25:27;11.20;99.90
23114;DHT22;11726;50.122;8.832;2023-03-14T03:27:54;11.20;99.90
23114;DHT22;11726;50.122;8.832;2023-03-14T03:30:21;11.20;99.90
23114;DHT22;11726;50.122;8.832;2023-03-14T03:32:47;11.20;99.90
23114;DHT22;11726;50.122;8.832;2023-03-14T03:35:14;11.20;99.90
23114;DHT22;11726;50.122;8.832;2023-03-14T03:37:41;11.20;99.90
23114;DHT22;11726;50.122;8.832;2023-03-14T03:40:08;11.00;99.90
23114;DHT22;11726;50.122;8.832;2023-03-14T03:42:35;11.00;99.90
23114;DHT22;11726;50.122;8.832;2023-03-14T03:45:03;11.10;99.90
23114;DHT22;11726;50.122;8.832;2023-03-14T03:47:34;11.00;99.90
23114;DHT22;11726;50.122;8.832;2023-03-14T03:50:01;11.00;99.90
23114;DHT22;11726;50.122;8.832;2023-03-14T03:52:28;11.00;99.90
23114;DHT22;11726;50.122;8.832;2023-03-14T03:54:55;11.00;99.90
23114;DHT22;11726;50.122;8.832;2023-03-14T03:57:21;11.00;99.90
23114;DHT22;11726;50.122;8.832;2023-03-14T03:59:48;11.00;99.90
23114;DHT22;11726;50.122;8.832;2023-03-14T04:02:15;11.00;99.90
23114;DHT22;11726;50.122;8.832;2023-03-14T04:04:41;11.10;99.90
23114;DHT22;11726;50.122;8.832;2023-03-14T04:07:08;11.10;99.90
23114;DHT22;11726;50.122;8.832;2023-03-14T04:09:37;11.10;99.90
23114;DHT22;11726;50.122;8.832;2023-03-14T04:12:04;11.20;99.90
23114;DHT22;11726;50.122;8.832;2023-03-14T04:14:31;11.10;99.90
23114;DHT22;11726;50.122;8.832;2023-03-14T04:16:57;11.20;99.90
23114;DHT22;11726;50.122;8.832;2023-03-14T04:19:24;11.20;99.90
23114;DHT22;11726;50.122;8.832;2023-03-14T04:21:51;11.20;99.90
23114;DHT22;11726;50.122;8.832;2023-03-14T04:24:17;11.20;99.90
23114;DHT22;11726;50.122;8.832;2023-03-14T04:26:44;11.20;99.90
23114;DHT22;11726;50.122;8.832;2023-03-14T04:29:10;11.20;99.90
23114;DHT22;11726;50.122;8.832;2023-03-14T04:31:38;11.20;99.90
23114;DHT22;11726;50.122;8.832;2023-03-14T04:34:05;11.20;99.90
23114;DHT22;11726;50.122;8.832;2023-03-14T04:36:32;11.20;99.90
23114;DHT22;11726;50.122;8.832;2023-03-14T04:38:58;11.10;99.90
23114;DHT22;11726;50.122;8.832;2023-03-14T04:41:25;11.10;99.90
23114;DHT22;11726;50.122;8.832;2023-03-14T04:43:51;11.10;99.90
23114;DHT22;11726;50.122;8.832;2023-03-14T04:46:18;11.10;99.90
23114;DHT22;11726;50.122;8.832;2023-03-14T04:48:45;11.20;99.90
23114;DHT22;11726;50.122;8.832;2023-03-14T04:51:11;11.30;99.90
23114;DHT22;11726;50.122;8.832;2023-03-14T04:53:38;11.20;99.90
23114;DHT22;11726;50.122;8.832;2023-03-14T04:56:05;11.20;99.90
23114;DHT22;11726;50.122;8.832;2023-03-14T04:58:32;11.20;99.90
23114;DHT22;11726;50.122;8.832;2023-03-14T05:01:03;11.30;99.90
23114;DHT22;11726;50.122;8.832;2023-03-14T05:03:30;11.30;99.90
23114;DHT22;11726;50.122;8.832;2023-03-14T05:05:56;11.20;99.90
23114;DHT22;11726;50.122;8.832;2023-03-14T05:08:25;11.30;99.90
23114;DHT22;11726;50.122;8.832;2023-03-14T05:10:53;11.30;99.90
23114;DHT22;11726;50.122;8.832;2023-03-14T05:13:20;11.30;99.90
23114;DHT22;11726;50.122;8.832;2023-03-14T05:15:46;11.30;99.90
23114;DHT22;11726;50.122;8.832;2023-03-14T05:18:13;11.30;99.90
23114;DHT22;11726;50.122;8.832;2023-03-14T05:20:39;11.30;99.90
23114;DHT22;11726;50.122;8.832;2023-03-14T05:23:06;11.30;99.90
23114;DHT22;11726;50.122;8.832;2023-03-14T05:25:33;11.30;99.90
23114;DHT22;11726;50.122;8.832;2023-03-14T05:27:59;11.20;99.90
23114;DHT22;11726;50.122;8.832;2023-03-14T05:30:26;11.20;99.90
23114;DHT22;11726;50.122;8.832;2023-03-14T05:32:54;11.20;99.90
23114;DHT22;11726;50.122;8.832;2023-03-14T05:35:21;11.20;99.90
23114;DHT22;11726;50.122;8.832;2023-03-14T05:37:48;11.20;99.90
23114;DHT22;11726;50.122;8.832;2023-03-14T05:40:15;11.20;99.90
23114;DHT22;11726;50.122;8.832;2023-03-14T05:42:41;11.20;99.90
23114;DHT22;11726;50.122;8.832;2023-03-14T05:45:08;11.10;99.90
23114;DHT22;11726;50.122;8.832;2023-03-14T05:47:35;11.00;99.90
23114;DHT22;11726;50.122;8.832;2023-03-14T05:50:01;11.00;99.90
23114;DHT22;11726;50.122;8.832;2023-03-14T05:52:28;11.10;99.90
23114;DHT22;11726;50.122;8.832;2023-03-14T05:54:54;11.20;99.90
23114;DHT22;11726;50.122;8.832;2023-03-14T05:57:21;11.20;99.90
23114;DHT22;11726;50.122;8.832;2023-03-14T05:59:47;11.30;99.90
23114;DHT22;11726;50.122;8.832;2023-03-14T06:02:14;11.20;99.90
23114;DHT22;11726;50.122;8.832;2023-03-14T06:04:40;11.20;99.90
23114;DHT22;11726;50.122;8.832;2023-03-14T06:07:07;11.20;99.90
23114;DHT22;11726;50.122;8.832;2023-03-14T06:09:33;11.10;99.90
23114;DHT22;11726;50.122;8.832;2023-03-14T06:12:00;11.20;99.90
23114;DHT22;11726;50.122;8.832;2023-03-14T06:14:27;11.20;99.90
23114;DHT22;11726;50.122;8.832;2023-03-14T06:16:53;11.10;99.90
23114;DHT22;11726;50.122;8.832;2023-03-14T06:19:20;11.10;99.90
23114;DHT22;11726;50.122;8.832;2023-03-14T06:21:47;11.10;99.90
23114;DHT22;11726;50.122;8.832;2023-03-14T06:24:13;11.10;99.90
23114;DHT22;11726;50.122;8.832;2023-03-14T06:26:40;11.00;99.90
23114;DHT22;11726;50.122;8.832;2023-03-14T06:29:07;11.10;99.90
23114;DHT22;11726;50.122;8.832;2023-03-14T06:31:33;11.10;99.90
23114;DHT22;11726;50.122;8.832;2023-03-14T06:34:00;11.10;99.90
23114;DHT22;11726;50.122;8.832;2023-03-14T06:36:27;11.00;99.90
23114;DHT22;11726;50.122;8.832;2023-03-14T06:38:53;11.00;99.90
23114;DHT22;11726;50.122;8.832;2023-03-14T06:41:20;10.90;99.90
23114;DHT22;11726;50.122;8.832;2023-03-14T06:43:50;10.90;99.90
23114;DHT22;11726;50.122;8.832;2023-03-14T06:46:16;10.80;99.90
23114;DHT22;11726;50.122;8.832;2023-03-14T06:48:43;10.80;99.90
23114;DHT22;11726;50.122;8.832;2023-03-14T06:51:10;10.80;99.90
23114;DHT22;11726;50.122;8.832;2023-03-14T06:53:36;10.80;99.90
23114;DHT22;11726;50.122;8.832;2023-03-14T06:56:03;10.80;99.90
23114;DHT22;11726;50.122;8.832;2023-03-14T06:58:30;10.80;99.90
23114;DHT22;11726;50.122;8.832;2023-03-14T07:00:56;10.80;99.90
23114;DHT22;11726;50.122;8.832;2023-03-14T07:03:23;10.80;99.90
23114;DHT22;11726;50.122;8.832;2023-03-14T07:05:50;10.80;99.90
23114;DHT22;11726;50.122;8.832;2023-03-14T07:08:17;10.80;99.90
23114;DHT22;11726;50.122;8.832;2023-03-14T07:10:44;10.90;99.90
23114;DHT22;11726;50.122;8.832;2023-03-14T07:13:10;11.00;99.90
23114;DHT22;11726;50.122;8.832;2023-03-14T07:15:38;11.00;99.90
23114;DHT22;11726;50.122;8.832;2023-03-14T07:18:04;11.10;99.90
23114;DHT22;11726;50.122;8.832;2023-03-14T07:20:31;11.10;99.90
23114;DHT22;11726;50.122;8.832;2023-03-14T07:22:58;11.10;99.90
23114;DHT22;11726;50.122;8.832;2023-03-14T07:25:29;11.10;99.90
23114;DHT22;11726;50.122;8.832;2023-03-14T07:27:56;11.10;99.90
23114;DHT22;11726;50.122;8.832;2023-03-14T07:30:22;11.10;99.90
23114;DHT22;11726;50.122;8.832;2023-03-14T07:32:49;11.20;99.90
23114;DHT22;11726;50.122;8.832;2023-03-14T07:35:17;11.20;99.90
23114;DHT22;11726;50.122;8.832;2023-03-14T07:37:43;11.20;99.90
23114;DHT22;11726;50.122;8.832;2023-03-14T07:40:10;11.30;99.90
23114;DHT22;11726;50.122;8.832;2023-03-14T07:42:42;11.40;99.90
23114;DHT22;11726;50.122;8.832;2023-03-14T07:45:09;11.50;99.90
23114;DHT22;11726;50.122;8.832;2023-03-14T07:47:38;11.50;99.90
23114;DHT22;11726;50.122;8.832;2023-03-14T07:50:05;11.60;99.90
23114;DHT22;11726;50.122;8.832;2023-03-14T07:52:31;11.60;99.90
23114;DHT22;11726;50.122;8.832;2023-03-14T07:54:58;11.50;99.90
23114;DHT22;11726;50.122;8.832;2023-03-14T07:57:25;11.50;99.90
23114;DHT22;11726;50.122;8.832;2023-03-14T07:59:51;11.60;99.90
23114;DHT22;11726;50.122;8.832;2023-03-14T08:02:18;11.60;99.90
23114;DHT22;11726;50.122;8.832;2023-03-14T08:04:48;11.60;99.90
23114;DHT22;11726;50.122;8.832;2023-03-14T08:07:15;11.50;99.90
23114;DHT22;11726;50.122;8.832;2023-03-14T08:09:42;11.60;99.90
23114;DHT22;11726;50.122;8.832;2023-03-14T08:12:09;11.60;99.90
23114;DHT22;11726;50.122;8.832;2023-03-14T08:14:35;11.60;99.90
23114;DHT22;11726;50.122;8.832;2023-03-14T08:17:02;11.60;99.90
23114;DHT22;11726;50.122;8.832;2023-03-14T08:19:28;11.60;99.90
23114;DHT22;11726;50.122;8.832;2023-03-14T08:21:55;11.60;99.90
23114;DHT22;11726;50.122;8.832;2023-03-14T08:24:21;11.70;99.90
23114;DHT22;11726;50.122;8.832;2023-03-14T08:26:48;11.60;99.90
23114;DHT22;11726;50.122;8.832;2023-03-14T08:29:15;11.70;99.90
23114;DHT22;11726;50.122;8.832;2023-03-14T08:31:41;11.70;99.90
23114;DHT22;11726;50.122;8.832;2023-03-14T08:34:08;11.70;99.90
23114;DHT22;11726;50.122;8.832;2023-03-14T08:36:34;11.80;99.90
23114;DHT22;11726;50.122;8.832;2023-03-14T08:39:01;11.90;99.90
23114;DHT22;11726;50.122;8.832;2023-03-14T08:41:30;11.90;99.90
23114;DHT22;11726;50.122;8.832;2023-03-14T08:43:56;11.90;99.90
23114;DHT22;11726;50.122;8.832;2023-03-14T08:46:23;12.00;99.90
23114;DHT22;11726;50.122;8.832;2023-03-14T08:48:49;12.00;99.90
23114;DHT22;11726;50.122;8.832;2023-03-14T08:51:16;12.00;99.90
23114;DHT22;11726;50.122;8.832;2023-03-14T08:53:43;12.00;99.90
23114;DHT22;11726;50.122;8.832;2023-03-14T08:56:10;11.90;99.90
23114;DHT22;11726;50.122;8.832;2023-03-14T08:58:37;11.90;99.90
23114;DHT22;11726;50.122;8.832;2023-03-14T09:01:10;11.90;99.90
23114;DHT22;11726;50.122;8.832;2023-03-14T09:03:37;12.00;99.90
23114;DHT22;11726;50.122;8.832;2023-03-14T09:06:06;12.10;99.90
23114;DHT22;11726;50.122;8.832;2023-03-14T09:08:34;12.30;99.90
23114;DHT22;11726;50.122;8.832;2023-03-14T09:11:07;12.50;99.90
23114;DHT22;11726;50.122;8.832;2023-03-14T09:13:34;12.50;99.90
23114;DHT22;11726;50.122;8.832;2023-03-14T09:16:00;12.40;99.90
23114;DHT22;11726;50.122;8.832;2023-03-14T09:18:27;12.30;99.90
23114;DHT22;11726;50.122;8.832;2023-03-14T09:20:55;12.30;99.90
23114;DHT22;11726;50.122;8.832;2023-03-14T09:23:21;12.30;99.90
23114;DHT22;11726;50.122;8.832;2023-03-14T09:25:48;12.30;99.90
23114;DHT22;11726;50.122;8.832;2023-03-14T09:28:15;12.30;99.90
23114;DHT22;11726;50.122;8.832;2023-03-14T09:30:41;12.30;99.90
23114;DHT22;11726;50.122;8.832;2023-03-14T09:33:08;12.30;99.90
23114;DHT22;11726;50.122;8.832;2023-03-14T09:35:34;12.30;99.90
23114;DHT22;11726;50.122;8.832;2023-03-14T09:38:01;12.30;99.90
23114;DHT22;11726;50.122;8.832;2023-03-14T09:40:32;12.40;99.90
23114;DHT22;11726;50.122;8.832;2023-03-14T09:42:59;12.40;99.90
23114;DHT22;11726;50.122;8.832;2023-03-14T09:45:29;12.50;99.90
23114;DHT22;11726;50.122;8.832;2023-03-14T09:47:58;12.60;99.90
23114;DHT22;11726;50.122;8.832;2023-03-14T09:50:31;12.60;99.90
23114;DHT22;11726;50.122;8.832;2023-03-14T09:53:03;12.50;99.90
23114;DHT22;11726;50.122;8.832;2023-03-14T09:55:31;12.40;99.90
23114;DHT22;11726;50.122;8.832;2023-03-14T09:58:03;12.30;99.90
23114;DHT22;11726;50.122;8.832;2023-03-14T10:00:32;12.20;99.90
23114;DHT22;11726;50.122;8.832;2023-03-14T10:05:39;12.20;99.90
23114;DHT22;11726;50.122;8.832;2023-03-14T10:08:06;11.90;99.90
23114;DHT22;11726;50.122;8.832;2023-03-14T10:10:32;11.90;99.90
23114;DHT22;11726;50.122;8.832;2023-03-14T10:15:41;11.70;99.90
23114;DHT22;11726;50.122;8.832;2023-03-14T10:18:12;11.70;99.90
23114;DHT22;11726;50.122;8.832;2023-03-14T10:20:42;11.70;99.90
23114;DHT22;11726;50.122;8.832;2023-03-14T10:25:48;11.90;99.90
23114;DHT22;11726;50.122;8.832;2023-03-14T10:28:53;11.90;99.90
23114;DHT22;11726;50.122;8.832;2023-03-14T10:31:18;11.90;99.90
23114;DHT22;11726;50.122;8.832;2023-03-14T10:34:04;11.90;99.90
23114;DHT22;11726;50.122;8.832;2023-03-14T10:36:32;12.00;99.90
23114;DHT22;11726;50.122;8.832;2023-03-14T10:44:55;12.10;99.90
23114;DHT22;11726;50.122;8.832;2023-03-14T10:47:24;12.20;99.90
23114;DHT22;11726;50.122;8.832;2023-03-14T10:49:52;12.10;99.90
23114;DHT22;11726;50.122;8.832;2023-03-14T10:52:24;12.10;99.90
23114;DHT22;11726;50.122;8.832;2023-03-14T10:55:11;12.10;99.90
23114;DHT22;11726;50.122;8.832;2023-03-14T10:57:42;12.10;99.90
23114;DHT22;11726;50.122;8.832;2023-03-14T11:00:19;12.00;99.90
23114;DHT22;11726;50.122;8.832;2023-03-14T11:03:07;12.00;99.90
23114;DHT22;11726;50.122;8.832;2023-03-14T11:05:59;11.90;99.90
23114;DHT22;11726;50.122;8.832;2023-03-14T11:08:53;11.80;99.90
23114;DHT22;11726;50.122;8.832;2023-03-14T11:11:25;11.70;99.90
23114;DHT22;11726;50.122;8.832;2023-03-14T11:14:05;11.70;99.90
23114;DHT22;11726;50.122;8.832;2023-03-14T11:22:41;11.50;99.90
23114;DHT22;11726;50.122;8.832;2023-03-14T11:25:26;11.50;99.90
23114;DHT22;11726;50.122;8.832;2023-03-14T11:28:47;11.40;99.90
23114;DHT22;11726;50.122;8.832;2023-03-14T11:30:59;11.40;99.90
23114;DHT22;11726;50.122;8.832;2023-03-14T11:33:47;11.30;99.90
23114;DHT22;11726;50.122;8.832;2023-03-14T11:36:33;11.40;99.90
23114;DHT22;11726;50.122;8.832;2023-03-14T11:39:03;11.40;99.90
23114;DHT22;11726;50.122;8.832;2023-03-14T11:41:37;11.50;99.90
23114;DHT22;11726;50.122;8.832;2023-03-14T11:57:40;11.40;99.90
23114;DHT22;11726;50.122;8.832;2023-03-14T12:00:17;11.40;99.90
23114;DHT22;11726;50.122;8.832;2023-03-14T12:05:35;11.50;99.90
23114;DHT22;11726;50.122;8.832;2023-03-14T12:10:43;11.60;99.90
23114;DHT22;11726;50.122;8.832;2023-03-14T12:13:13;11.60;99.90
23114;DHT22;11726;50.122;8.832;2023-03-14T12:15:46;11.50;99.90
23114;DHT22;11726;50.122;8.832;2023-03-14T12:18:36;11.50;99.90
23114;DHT22;11726;50.122;8.832;2023-03-14T12:21:10;11.50;99.90
23114;DHT22;11726;50.122;8.832;2023-03-14T12:23:49;11.40;99.90
23114;DHT22;11726;50.122;8.832;2023-03-14T12:26:23;10.50;99.90
23114;DHT22;11726;50.122;8.832;2023-03-14T12:34:33;9.40;99.90
23114;DHT22;11726;50.122;8.832;2023-03-14T12:37:18;9.50;99.90
23114;DHT22;11726;50.122;8.832;2023-03-14T12:39:55;9.60;99.90
23114;DHT22;11726;50.122;8.832;2023-03-14T12:45:31;9.70;99.90
23114;DHT22;11726;50.122;8.832;2023-03-14T12:48:08;9.80;99.90
23114;DHT22;11726;50.122;8.832;2023-03-14T13:01:47;10.20;99.90
23114;DHT22;11726;50.122;8.832;2023-03-14T13:04:19;10.20;99.90
23114;DHT22;11726;50.122;8.832;2023-03-14T13:07:04;10.10;99.90
23114;DHT22;11726;50.122;8.832;2023-03-14T13:09:52;10.10;99.90
23114;DHT22;11726;50.122;8.832;2023-03-14T13:12:23;10.00;99.90
23114;DHT22;11726;50.122;8.832;2023-03-14T13:14:54;10.00;99.90
23114;DHT22;11726;50.122;8.832;2023-03-14T13:17:30;10.00;99.90
23114;DHT22;11726;50.122;8.832;2023-03-14T13:20:30;10.10;99.90
23114;DHT22;11726;50.122;8.832;2023-03-14T13:22:57;10.20;99.90
23114;DHT22;11726;50.122;8.832;2023-03-14T13:25:29;10.20;99.90
23114;DHT22;11726;50.122;8.832;2023-03-14T13:27:56;10.30;99.90
23114;DHT22;11726;50.122;8.832;2023-03-14T13:30:26;10.30;99.90
23114;DHT22;11726;50.122;8.832;2023-03-14T13:32:54;10.40;99.90
23114;DHT22;11726;50.122;8.832;2023-03-14T13:35:29;10.50;99.90
23114;DHT22;11726;50.122;8.832;2023-03-14T13:37:58;10.60;99.90
23114;DHT22;11726;50.122;8.832;2023-03-14T13:40:43;10.70;99.90
23114;DHT22;11726;50.122;8.832;2023-03-14T13:43:24;10.70;99.90
23114;DHT22;11726;50.122;8.832;2023-03-14T13:45:52;10.80;99.90
23114;DHT22;11726;50.122;8.832;2023-03-14T13:48:21;10.90;99.90
23114;DHT22;11726;50.122;8.832;2023-03-14T13:50:54;11.00;99.90
23114;DHT22;11726;50.122;8.832;2023-03-14T13:53:22;11.20;99.90
23114;DHT22;11726;50.122;8.832;2023-03-14T13:55:49;11.20;99.90
23114;DHT22;11726;50.122;8.832;2023-03-14T13:58:24;11.20;99.90
23114;DHT22;11726;50.122;8.832;2023-03-14T14:01:06;11.30;99.90
23114;DHT22;11726;50.122;8.832;2023-03-14T14:03:39;11.10;99.90
23114;DHT22;11726;50.122;8.832;2023-03-14T14:06:19;10.80;99.90
23114;DHT22;11726;50.122;8.832;2023-03-14T14:08:48;10.50;99.90
23114;DHT22;11726;50.122;8.832;2023-03-14T14:11:31;10.50;99.90
23114;DHT22;11726;50.122;8.832;2023-03-14T14:14:20;10.50;99.90
23114;DHT22;11726;50.122;8.832;2023-03-14T14:16:47;10.50;99.90
23114;DHT22;11726;50.122;8.832;2023-03-14T14:19:20;10.30;99.90
23114;DHT22;11726;50.122;8.832;2023-03-14T14:21:48;10.40;99.90
23114;DHT22;11726;50.122;8.832;2023-03-14T14:24:16;10.50;99.90
23114;DHT22;11726;50.122;8.832;2023-03-14T14:27:00;10.30;99.90
23114;DHT22;11726;50.122;8.832;2023-03-14T14:29:32;10.20;99.90
23114;DHT22;11726;50.122;8.832;2023-03-14T14:34:57;10.10;99.90
23114;DHT22;11726;50.122;8.832;2023-03-14T14:37:27;10.10;99.90
23114;DHT22;11726;50.122;8.832;2023-03-14T14:39:56;9.90;99.90
23114;DHT22;11726;50.122;8.832;2023-03-14T14:42:30;9.20;99.90
23114;DHT22;11726;50.122;8.832;2023-03-14T14:44:58;8.60;99.90
23114;DHT22;11726;50.122;8.832;2023-03-14T14:47:27;8.50;99.90
23114;DHT22;11726;50.122;8.832;2023-03-14T14:49:57;8.50;99.90
23114;DHT22;11726;50.122;8.832;2023-03-14T14:52:39;8.60;99.90
23114;DHT22;11726;50.122;8.832;2023-03-14T14:55:16;8.60;99.90
23114;DHT22;11726;50.122;8.832;2023-03-14T14:57:50;8.50;99.90
23114;DHT22;11726;50.122;8.832;2023-03-14T15:00:20;8.40;99.90
23114;DHT22;11726;50.122;8.832;2023-03-14T15:02:48;8.50;99.90
23114;DHT22;11726;50.122;8.832;2023-03-14T15:05:22;8.50;99.90
23114;DHT22;11726;50.122;8.832;2023-03-14T15:07:50;8.50;99.90
23114;DHT22;11726;50.122;8.832;2023-03-14T15:10:22;8.50;99.90
23114;DHT22;11726;50.122;8.832;2023-03-14T15:12:49;8.50;99.90
23114;DHT22;11726;50.122;8.832;2023-03-14T15:15:17;8.50;99.90
23114;DHT22;11726;50.122;8.832;2023-03-14T15:17:43;8.50;99.90
23114;DHT22;11726;50.122;8.832;2023-03-14T15:20:14;8.50;99.90
23114;DHT22;11726;50.122;8.832;2023-03-14T15:22:41;8.50;99.90
23114;DHT22;11726;50.122;8.832;2023-03-14T15:25:08;8.50;99.90
23114;DHT22;11726;50.122;8.832;2023-03-14T15:27:52;8.40;99.90
23114;DHT22;11726;50.122;8.832;2023-03-14T15:30:19;8.20;99.90
23114;DHT22;11726;50.122;8.832;2023-03-14T15:32:46;8.10;99.90
23114;DHT22;11726;50.122;8.832;2023-03-14T15:35:13;8.10;99.90
23114;DHT22;11726;50.122;8.832;2023-03-14T15:37:43;8.10;99.90
23114;DHT22;11726;50.122;8.832;2023-03-14T15:40:12;8.10;99.90
23114;DHT22;11726;50.122;8.832;2023-03-14T15:42:40;8.00;99.90
23114;DHT22;11726;50.122;8.832;2023-03-14T15:45:07;8.00;99.90
23114;DHT22;11726;50.122;8.832;2023-03-14T15:47:34;7.90;99.90
23114;DHT22;11726;50.122;8.832;2023-03-14T15:50:01;7.80;99.90
23114;DHT22;11726;50.122;8.832;2023-03-14T15:52:28;7.80;99.90
23114;DHT22;11726;50.122;8.832;2023-03-14T15:54:55;7.80;99.90
23114;DHT22;11726;50.122;8.832;2023-03-14T15:57:22;7.80;99.90
23114;DHT22;11726;50.122;8.832;2023-03-14T15:59:48;7.80;99.90
23114;DHT22;11726;50.122;8.832;2023-03-14T16:02:15;7.80;99.90
23114;DHT22;11726;50.122;8.832;2023-03-14T16:04:41;7.80;99.90
23114;DHT22;11726;50.122;8.832;2023-03-14T16:07:08;7.80;99.90
23114;DHT22;11726;50.122;8.832;2023-03-14T16:09:35;7.80;99.90
23114;DHT22;11726;50.122;8.832;2023-03-14T16:12:02;7.80;99.90
23114;DHT22;11726;50.122;8.832;2023-03-14T16:14:31;7.90;99.90
23114;DHT22;11726;50.122;8.832;2023-03-14T16:16:58;7.80;99.90
23114;DHT22;11726;50.122;8.832;2023-03-14T16:19:26;7.80;99.90
23114;DHT22;11726;50.122;8.832;2023-03-14T16:21:57;7.80;99.90
23114;DHT22;11726;50.122;8.832;2023-03-14T16:24:23;8.00;99.90
23114;DHT22;11726;50.122;8.832;2023-03-14T16:26:50;7.90;99.90
23114;DHT22;11726;50.122;8.832;2023-03-14T16:29:16;7.90;99.90
23114;DHT22;11726;50.122;8.832;2023-03-14T16:31:43;7.80;99.90
23114;DHT22;11726;50.122;8.832;2023-03-14T16:34:10;7.80;99.90
23114;DHT22;11726;50.122;8.832;2023-03-14T16:36:37;7.80;99.90
23114;DHT22;11726;50.122;8.832;2023-03-14T16:39:04;7.80;99.90
23114;DHT22;11726;50.122;8.832;2023-03-14T16:41:30;7.80;99.90
23114;DHT22;11726;50.122;8.832;2023-03-14T16:43:58;7.80;99.90
23114;DHT22;11726;50.122;8.832;2023-03-14T16:46:25;7.70;99.90
23114;DHT22;11726;50.122;8.832;2023-03-14T16:48:54;7.60;99.90
23114;DHT22;11726;50.122;8.832;2023-03-14T16:51:22;7.30;99.90